Terminal Aerodrome Forecast
Issued by NWS

Home | Current Version | Previous Version | Text Only | Print | Product List | Glossary On
Versions: 1 2 3 4 5 6 7 8 9 10 11 12 13 14 15 16 17 18 19
976
FTUS43 KLSX 201723
TAFUIN
TAF
KUIN 201723Z 2018/2118 16016G24KT P6SM BKN250
     FM202200 17017G25KT P6SM VCSH BKN130
     FM210100 21008KT 5SM SHRA OVC040
     FM210600 21006KT P6SM VCSH OVC060
     FM210800 25005KT P6SM OVC060
     FM211200 30006KT P6SM BKN015
     FM211500 32006KT P6SM SCT015=

USA.gov is the U.S. government's official web portal to all federal, state and local government web resources and services.